createdAt,value
2019-04-21T00:00:29.745Z,11.63
2019-04-21T00:03:07.367Z,13.60
2019-04-21T00:05:53.352Z,12.00
2019-04-21T00:08:39.447Z,13.43
2019-04-21T00:11:01.394Z,13.67
2019-04-21T00:13:17.859Z,13.60
2019-04-21T00:15:42.044Z,12.70
2019-04-21T00:18:25.414Z,17.67
2019-04-21T00:20:58.614Z,11.97
2019-04-21T00:23:41.289Z,16.37
2019-04-21T00:26:09.113Z,12.43
2019-04-21T00:28:53.676Z,14.93
2019-04-21T00:31:17.010Z,13.00
2019-04-21T00:33:34.314Z,23.27
2019-04-21T00:36:11.523Z,33.63
2019-04-21T00:39:12.668Z,37.17
2019-04-21T00:41:27.663Z,36.47
2019-04-21T00:43:52.164Z,31.23
2019-04-21T00:46:22.994Z,28.63
2019-04-21T00:48:57.423Z,26.97
2019-04-21T00:51:40.693Z,24.97
2019-04-21T00:54:13.426Z,23.40
2019-04-21T00:56:34.022Z,21.47
2019-04-21T00:59:11.820Z,16.03
2019-04-21T01:01:35.956Z,22.60
2019-04-21T01:04:09.699Z,20.60
2019-04-21T01:06:43.720Z,18.00
2019-04-21T01:09:07.997Z,19.40
2019-04-21T01:11:44.224Z,17.37
2019-04-21T01:14:13.176Z,18.20
2019-04-21T01:16:48.587Z,20.03
2019-04-21T01:19:14.426Z,17.43
2019-04-21T01:21:23.440Z,18.00
2019-04-21T01:23:55.642Z,23.60
2019-04-21T01:26:33.798Z,17.80
2019-04-21T01:29:12.091Z,18.27
2019-04-21T01:31:42.125Z,20.03
2019-04-21T01:34:15.023Z,20.83
2019-04-21T01:36:47.454Z,17.67
2019-04-21T01:39:21.304Z,17.87
2019-04-21T01:41:51.086Z,15.77
2019-04-21T01:44:29.898Z,18.87
2019-04-21T01:46:48.649Z,19.33
2019-04-21T01:49:18.163Z,16.70
2019-04-21T01:52:08.964Z,15.57
2019-04-21T01:54:48.118Z,20.03
2019-04-21T01:57:17.553Z,16.97
2019-04-21T01:59:48.780Z,15.10
2019-04-21T02:02:26.687Z,17.50
2019-04-21T02:05:03.207Z,14.27
2019-04-21T02:07:27.479Z,18.73
2019-04-21T02:10:03.454Z,16.30
2019-04-21T02:12:36.093Z,12.87
2019-04-21T02:15:06.579Z,15.30
2019-04-21T02:17:31.049Z,12.70
2019-04-21T02:19:56.173Z,14.90
2019-04-21T02:22:56.108Z,16.13
2019-04-21T02:25:10.942Z,15.13
2019-04-21T02:27:36.433Z,12.90
2019-04-21T02:30:10.218Z,15.03
2019-04-21T02:32:47.923Z,13.40
2019-04-21T02:40:29.739Z,12.83
2019-04-21T02:45:34.255Z,14.13
2019-04-21T02:50:25.901Z,18.57
2019-04-21T03:00:36.456Z,16.53
2019-04-21T03:05:58.746Z,19.77
2019-04-21T03:08:44.300Z,21.03
2019-04-21T03:11:09.043Z,15.53
2019-04-21T03:18:43.673Z,17.03
2019-04-21T03:21:07.440Z,16.77
2019-04-21T03:28:35.700Z,15.43
2019-04-21T03:34:18.524Z,15.90
2019-04-21T03:36:43.688Z,16.93
2019-04-21T03:38:43.327Z,19.97
2019-04-21T03:46:15.877Z,16.83
2019-04-21T03:48:51.773Z,15.90
2019-04-21T03:51:23.480Z,17.27
2019-04-21T03:53:46.281Z,18.97
2019-04-21T03:56:29.494Z,15.60
2019-04-21T03:58:58.483Z,14.37
2019-04-21T04:01:58.369Z,14.83
2019-04-21T04:07:50.111Z,16.80
2019-04-21T04:12:42.698Z,17.10
2019-04-21T04:15:18.340Z,16.80
2019-04-21T04:17:40.084Z,14.03
2019-04-21T04:20:22.454Z,13.70
2019-04-21T04:22:53.432Z,13.70
2019-04-21T04:25:17.486Z,13.40
2019-04-21T04:28:02.945Z,15.00
2019-04-21T04:30:21.592Z,15.07
2019-04-21T04:32:53.764Z,18.10
2019-04-21T04:35:34.246Z,14.83
2019-04-21T04:38:13.569Z,14.43
2019-04-21T04:40:44.878Z,13.40
2019-04-21T04:43:19.321Z,18.77
2019-04-21T04:48:13.473Z,13.63
2019-04-21T04:53:31.032Z,18.20
2019-04-21T05:03:41.227Z,17.83
2019-04-21T05:06:34.845Z,17.87
2019-04-21T05:16:41.046Z,14.63
2019-04-21T05:23:48.456Z,15.47
2019-04-21T05:26:14.357Z,15.10
2019-04-21T05:28:44.710Z,16.03
2019-04-21T05:31:47.693Z,13.70
2019-04-21T05:34:22.084Z,20.77
2019-04-21T05:37:17.069Z,20.80
2019-04-21T05:40:00.643Z,17.90
2019-04-21T05:42:37.005Z,17.97
2019-04-21T05:45:18.543Z,18.20
2019-04-21T05:48:14.285Z,16.50
2019-04-21T05:50:27.989Z,19.13
2019-04-21T05:52:54.690Z,17.10
2019-04-21T05:55:35.970Z,18.70
2019-04-21T05:58:03.279Z,18.67
2019-04-21T06:01:48.587Z,19.63
2019-04-21T06:03:17.660Z,19.77
2019-04-21T06:05:54.438Z,19.53
2019-04-21T06:08:13.437Z,23.83
2019-04-21T06:10:50.883Z,20.33
2019-04-21T06:13:21.729Z,22.37
2019-04-21T06:15:50.308Z,20.23
2019-04-21T06:18:20.113Z,23.07
2019-04-21T06:20:51.794Z,22.13
2019-04-21T06:23:20.943Z,22.03
2019-04-21T06:26:25.629Z,21.60
2019-04-21T06:28:31.761Z,25.70
2019-04-21T06:30:59.371Z,28.80
2019-04-21T06:33:34.647Z,22.73
2019-04-21T06:36:31.496Z,24.57
2019-04-21T06:44:14.218Z,22.03
2019-04-21T06:46:34.993Z,20.63
2019-04-21T06:49:01.274Z,20.53
2019-04-21T06:51:33.701Z,23.50
2019-04-21T06:54:04.323Z,20.00
2019-04-21T06:56:37.991Z,19.30
2019-04-21T06:59:03.701Z,19.93
2019-04-21T07:01:36.847Z,17.73
2019-04-21T07:04:11.745Z,18.90
2019-04-21T07:06:43.603Z,22.13
2019-04-21T07:09:18.915Z,19.67
2019-04-21T07:11:38.161Z,19.70
2019-04-21T07:14:25.869Z,21.60
2019-04-21T07:16:44.710Z,20.33
2019-04-21T07:21:46.857Z,19.30
2019-04-21T07:24:22.720Z,21.97
2019-04-21T07:26:50.790Z,19.13
2019-04-21T07:29:25.877Z,20.20
2019-04-21T07:31:54.384Z,22.97
2019-04-21T07:39:18.398Z,17.37
2019-04-21T07:41:48.423Z,17.40
2019-04-21T07:44:17.118Z,16.20
2019-04-21T07:46:46.983Z,16.93
2019-04-21T07:49:50.222Z,17.70
2019-04-21T07:52:35.098Z,14.53
2019-04-21T07:55:14.233Z,18.97
2019-04-21T07:57:34.482Z,13.60
2019-04-21T08:00:16.107Z,14.33
2019-04-21T08:02:37.329Z,13.03
2019-04-21T08:07:49.368Z,14.30
2019-04-21T08:10:03.444Z,13.00
2019-04-21T08:12:35.905Z,13.27
2019-04-21T08:15:15.717Z,13.40
2019-04-21T08:17:41.520Z,11.77
2019-04-21T08:20:15.592Z,12.90
2019-04-21T08:22:46.801Z,11.78
2019-04-21T08:25:16.595Z,11.15
2019-04-21T08:27:49.511Z,10.63
2019-04-21T08:30:19.090Z,12.15
2019-04-21T08:33:04.359Z,13.60
2019-04-21T08:37:49.535Z,10.60
2019-04-21T08:40:27.320Z,11.93
2019-04-21T08:42:54.092Z,11.40
2019-04-21T08:45:28.153Z,11.85
2019-04-21T08:50:25.335Z,15.18
2019-04-21T08:56:10.858Z,11.68
2019-04-21T08:58:59.060Z,10.63
2019-04-21T09:01:55.279Z,10.93
2019-04-21T09:04:25.263Z,10.90
2019-04-21T09:09:32.151Z,11.63
2019-04-21T09:11:59.651Z,12.63
2019-04-21T09:14:33.434Z,12.82
2019-04-21T09:16:56.749Z,12.25
2019-04-21T09:19:44.286Z,13.15
2019-04-21T09:22:05.869Z,10.85
2019-04-21T09:24:33.468Z,14.58
2019-04-21T09:27:05.056Z,12.93
2019-04-21T09:29:28.438Z,12.93
2019-04-21T09:31:54.470Z,10.53
2019-04-21T09:34:30.074Z,10.38
2019-04-21T09:37:09.927Z,10.48
2019-04-21T09:39:26.273Z,11.22
2019-04-21T09:41:59.139Z,8.53
2019-04-21T09:44:30.631Z,8.98
2019-04-21T09:47:01.256Z,10.98
2019-04-21T09:49:31.701Z,9.18
2019-04-21T09:51:59.968Z,9.03
2019-04-21T09:54:33.645Z,9.83
2019-04-21T09:57:05.865Z,12.20
2019-04-21T09:59:38.264Z,11.35
2019-04-21T10:02:08.458Z,12.80
2019-04-21T10:04:35.547Z,9.30
2019-04-21T10:07:05.205Z,11.38
2019-04-21T10:09:35.555Z,11.68
2019-04-21T10:12:05.309Z,11.83
2019-04-21T10:14:34.833Z,15.58
2019-04-21T10:17:27.565Z,12.03
2019-04-21T10:19:58.604Z,14.55
2019-04-21T10:22:28.842Z,11.93
2019-04-21T10:24:58.577Z,13.35
2019-04-21T10:27:29.134Z,9.70
2019-04-21T10:29:58.940Z,12.70
2019-04-21T10:32:28.438Z,15.72
2019-04-21T10:34:59.101Z,12.78
2019-04-21T10:37:42.601Z,10.50
2019-04-21T10:40:00.190Z,9.63
2019-04-21T10:42:29.698Z,14.23
2019-04-21T10:45:01.065Z,12.25
2019-04-21T10:47:31.296Z,10.25
2019-04-21T10:50:00.985Z,10.20
2019-04-21T10:52:49.407Z,10.88
2019-04-21T10:55:36.760Z,9.35
2019-04-21T10:58:10.829Z,8.03
2019-04-21T11:00:42.122Z,9.08
2019-04-21T11:03:42.940Z,12.40
2019-04-21T11:06:14.756Z,10.30
2019-04-21T11:08:48.568Z,15.10
2019-04-21T11:11:16.225Z,11.38
2019-04-21T11:13:46.431Z,10.13
2019-04-21T11:16:17.150Z,10.60
2019-04-21T11:18:48.195Z,8.28
2019-04-21T11:21:18.808Z,11.15
2019-04-21T11:23:48.535Z,10.45
2019-04-21T11:26:18.129Z,10.18
2019-04-21T11:28:48.920Z,9.83
2019-04-21T11:31:18.896Z,10.65
2019-04-21T11:33:49.162Z,10.68
2019-04-21T11:36:19.498Z,9.85
2019-04-21T11:39:25.737Z,12.98
2019-04-21T11:41:49.779Z,9.43
2019-04-21T11:44:22.598Z,10.28
2019-04-21T11:46:52.027Z,9.65
2019-04-21T11:49:22.369Z,10.20
2019-04-21T11:51:53.129Z,11.40
2019-04-21T11:54:22.849Z,9.93
2019-04-21T11:56:52.884Z,9.83
2019-04-21T11:59:23.730Z,8.93
2019-04-21T12:01:54.022Z,11.22
2019-04-21T12:04:23.756Z,11.35
2019-04-21T12:06:54.576Z,9.50
2019-04-21T12:09:25.107Z,9.05
2019-04-21T12:11:54.697Z,10.50
2019-04-21T12:14:24.248Z,10.93
2019-04-21T12:16:55.100Z,10.72
2019-04-21T12:19:25.036Z,10.32
2019-04-21T12:22:05.010Z,9.60
2019-04-21T12:24:28.477Z,9.98
2019-04-21T12:26:57.967Z,11.63
2019-04-21T12:29:27.515Z,10.43
2019-04-21T12:32:20.226Z,11.73
2019-04-21T12:34:51.887Z,11.05
2019-04-21T12:37:22.661Z,10.45
2019-04-21T12:39:52.535Z,16.95
2019-04-21T12:42:22.870Z,10.23
2019-04-21T12:44:52.518Z,9.55
2019-04-21T12:47:22.018Z,9.98
2019-04-21T12:49:52.029Z,8.45
2019-04-21T12:52:21.856Z,8.85
2019-04-21T12:54:51.582Z,11.73
2019-04-21T12:57:21.422Z,7.67
2019-04-21T12:59:51.058Z,9.05
2019-04-21T13:02:21.887Z,8.63
2019-04-21T13:04:52.996Z,9.08
2019-04-21T13:07:23.559Z,9.73
2019-04-21T13:09:54.512Z,10.18
2019-04-21T13:12:24.858Z,6.95
2019-04-21T13:14:56.420Z,7.90
2019-04-21T13:17:25.668Z,10.20
2019-04-21T13:19:55.168Z,7.60
2019-04-21T13:22:25.864Z,6.62
2019-04-21T13:24:55.820Z,7.00
2019-04-21T13:27:26.797Z,7.95
2019-04-21T13:29:56.521Z,9.65
2019-04-21T13:32:26.948Z,7.33
2019-04-21T13:34:57.061Z,7.90
2019-04-21T13:37:27.753Z,6.33
2019-04-21T13:40:44.952Z,6.65
2019-04-21T13:43:02.830Z,9.05
2019-04-21T13:45:32.214Z,6.40
2019-04-21T13:48:01.927Z,8.10
2019-04-21T13:50:31.435Z,7.17
2019-04-21T13:53:00.919Z,7.17
2019-04-21T13:55:31.745Z,6.95
2019-04-21T13:58:02.111Z,7.50
2019-04-21T14:00:31.916Z,6.17
2019-04-21T14:03:02.822Z,7.62
2019-04-21T14:05:32.757Z,11.95
2019-04-21T14:08:03.140Z,6.28
2019-04-21T14:10:33.479Z,7.78
2019-04-21T14:13:04.552Z,6.37
2019-04-21T14:15:34.117Z,9.00
2019-04-21T14:18:04.655Z,7.67
2019-04-21T14:20:35.241Z,6.28
2019-04-21T14:23:15.702Z,6.65
2019-04-21T14:25:37.444Z,6.78
2019-04-21T14:28:08.085Z,6.05
2019-04-21T14:30:38.593Z,6.30
2019-04-21T14:33:09.890Z,6.90
2019-04-21T14:35:40.950Z,7.97
2019-04-21T14:38:10.850Z,6.67
2019-04-21T14:40:41.733Z,6.72
2019-04-21T14:43:12.023Z,7.22
2019-04-21T14:45:52.798Z,7.00
2019-04-21T14:48:41.192Z,6.37
2019-04-21T14:51:29.397Z,6.62
2019-04-21T14:54:21.000Z,6.33
2019-04-21T14:56:51.306Z,6.72
2019-04-21T14:59:21.376Z,9.18
2019-04-21T15:01:51.809Z,6.22
2019-04-21T15:04:22.449Z,6.10
2019-04-21T15:06:52.567Z,7.47
2019-04-21T15:09:22.969Z,6.33
2019-04-21T15:11:53.848Z,7.92
2019-04-21T15:14:24.111Z,7.25
2019-04-21T15:16:54.568Z,8.00
2019-04-21T15:19:24.626Z,8.45
2019-04-21T15:21:54.315Z,6.15
2019-04-21T15:24:24.348Z,6.10
2019-04-21T15:26:54.784Z,14.15
2019-04-21T15:29:24.737Z,6.10
2019-04-21T15:31:54.605Z,5.87
2019-04-21T15:34:25.985Z,13.15
2019-04-21T15:36:55.675Z,5.53
2019-04-21T15:39:25.734Z,6.70
2019-04-21T15:41:56.673Z,5.78
2019-04-21T15:44:27.092Z,5.60
2019-04-21T15:46:57.804Z,6.80
2019-04-21T15:49:40.664Z,6.00
2019-04-21T15:52:02.021Z,7.05
2019-04-21T15:54:32.352Z,7.25
2019-04-21T15:57:11.248Z,6.10
2019-04-21T15:59:55.817Z,6.75
2019-04-21T16:02:42.513Z,6.62
2019-04-21T16:05:13.057Z,6.75
2019-04-21T16:07:42.719Z,6.42
2019-04-21T16:10:26.556Z,6.85
2019-04-21T16:12:43.775Z,7.65
2019-04-21T16:15:14.495Z,7.03
2019-04-21T16:17:45.548Z,9.28
2019-04-21T16:20:15.602Z,7.55
2019-04-21T16:22:46.398Z,6.15
2019-04-21T16:25:17.007Z,7.28
2019-04-21T16:27:47.667Z,8.23
2019-04-21T16:30:19.557Z,8.85
2019-04-21T16:32:50.253Z,11.30
2019-04-21T16:35:21.722Z,10.48
2019-04-21T16:37:53.739Z,10.40
2019-04-21T16:40:23.422Z,8.63
2019-04-21T16:42:54.242Z,7.50
2019-04-21T16:45:25.230Z,7.67
2019-04-21T16:47:55.983Z,7.97
2019-04-21T16:50:27.890Z,8.90
2019-04-21T16:53:16.585Z,8.45
2019-04-21T16:55:51.187Z,9.33
2019-04-21T16:58:32.508Z,9.88
2019-04-21T17:01:10.771Z,7.30
2019-04-21T17:03:36.846Z,7.85
2019-04-21T17:06:07.019Z,8.98
2019-04-21T17:08:36.907Z,7.92
2019-04-21T17:11:16.152Z,8.90
2019-04-21T17:13:38.300Z,7.10
2019-04-21T17:16:38.600Z,6.67
2019-04-21T17:18:51.436Z,7.37
2019-04-21T17:21:11.145Z,7.75
2019-04-21T17:23:41.295Z,8.60
2019-04-21T17:26:11.043Z,7.40
2019-04-21T17:28:40.898Z,7.55
2019-04-21T17:31:10.843Z,7.62
2019-04-21T17:33:41.412Z,7.67
2019-04-21T17:36:11.483Z,6.83
2019-04-21T17:38:41.824Z,8.25
2019-04-21T17:41:21.866Z,6.45
2019-04-21T17:43:43.668Z,8.73
2019-04-21T17:46:20.337Z,7.42
2019-04-21T17:48:45.157Z,9.05
2019-04-21T17:51:31.966Z,7.00
2019-04-21T17:54:25.882Z,9.13
2019-04-21T17:57:15.362Z,9.15
2019-04-21T17:59:53.151Z,7.50
2019-04-21T18:02:12.999Z,11.12
2019-04-21T18:04:44.534Z,9.18
2019-04-21T18:07:26.251Z,8.13
2019-04-21T18:10:00.963Z,14.80
2019-04-21T18:12:30.373Z,7.60
2019-04-21T18:14:53.005Z,8.25
2019-04-21T18:17:16.222Z,7.97
2019-04-21T18:19:49.144Z,7.62
2019-04-21T18:22:51.260Z,9.60
2019-04-21T18:25:33.355Z,8.58
2019-04-21T18:27:52.599Z,10.63
2019-04-21T18:30:46.614Z,11.03
2019-04-21T18:33:24.143Z,15.00
2019-04-21T18:36:07.065Z,13.85
2019-04-21T18:39:04.292Z,16.50
2019-04-21T18:41:23.962Z,16.37
2019-04-21T18:47:10.259Z,13.40
2019-04-21T18:49:24.880Z,11.93
2019-04-21T18:52:05.944Z,11.40
2019-04-21T18:54:50.166Z,10.63
2019-04-21T18:57:12.927Z,19.67
2019-04-21T18:59:39.591Z,9.45
2019-04-21T19:02:09.875Z,11.53
2019-04-21T19:04:38.752Z,10.28
2019-04-21T19:07:20.134Z,11.10
2019-04-21T19:10:16.024Z,11.70
2019-04-21T19:12:36.627Z,10.10
2019-04-21T19:14:55.045Z,9.53
2019-04-21T19:20:10.411Z,12.80
2019-04-21T19:22:34.572Z,11.30
2019-04-21T19:25:07.346Z,11.25
2019-04-21T19:27:32.436Z,15.23
2019-04-21T19:30:17.696Z,11.55
2019-04-21T19:32:37.608Z,12.25
2019-04-21T19:34:54.895Z,10.48
2019-04-21T19:37:25.964Z,10.75
2019-04-21T19:40:05.713Z,12.28
2019-04-21T19:42:36.664Z,9.98
2019-04-21T19:45:11.839Z,14.60
2019-04-21T19:47:49.968Z,10.82
2019-04-21T19:50:19.425Z,11.83
2019-04-21T19:52:40.996Z,13.10
2019-04-21T19:55:00.623Z,13.03
2019-04-21T19:57:31.351Z,14.65
2019-04-21T20:00:04.209Z,11.22
2019-04-21T20:02:32.322Z,9.48
2019-04-21T20:05:07.072Z,13.93
2019-04-21T20:07:49.776Z,11.97
2019-04-21T20:10:27.034Z,10.40
2019-04-21T20:12:57.010Z,9.53
2019-04-21T20:15:37.411Z,9.38
2019-04-21T20:17:55.656Z,9.63
2019-04-21T20:20:11.329Z,9.10
2019-04-21T20:22:44.086Z,13.30
2019-04-21T20:25:17.257Z,10.13
2019-04-21T20:27:53.003Z,9.80
2019-04-21T20:30:34.706Z,8.63
2019-04-21T20:33:31.862Z,9.18
2019-04-21T20:35:46.950Z,10.43
2019-04-21T20:38:02.273Z,10.05
2019-04-21T20:40:33.191Z,9.00
2019-04-21T20:43:11.512Z,10.38
2019-04-21T20:45:49.259Z,10.32
2019-04-21T20:48:10.848Z,9.80
2019-04-21T20:50:36.433Z,9.05
2019-04-21T20:53:14.947Z,9.75
2019-04-21T20:55:43.934Z,9.60
2019-04-21T20:58:06.860Z,11.55
2019-04-21T21:00:56.147Z,11.50
2019-04-21T21:03:24.738Z,12.20
2019-04-21T21:05:49.463Z,10.25
2019-04-21T21:08:24.627Z,10.50
2019-04-21T21:10:50.072Z,8.28
2019-04-21T21:16:10.235Z,10.38
2019-04-21T21:18:52.022Z,9.05
2019-04-21T21:21:00.348Z,10.55
2019-04-21T21:23:33.537Z,10.18
2019-04-21T21:26:03.135Z,10.10
2019-04-21T21:28:26.607Z,10.13
2019-04-21T21:31:04.281Z,8.90
2019-04-21T21:33:35.576Z,8.90
2019-04-21T21:36:06.172Z,9.40
2019-04-21T21:38:39.339Z,10.40
2019-04-21T21:40:59.957Z,10.93
2019-04-21T21:43:23.685Z,9.75
2019-04-21T21:45:56.185Z,9.88
2019-04-21T21:48:38.042Z,11.57
2019-04-21T21:51:03.931Z,11.03
2019-04-21T21:53:28.841Z,10.50
2019-04-21T21:55:58.434Z,9.27
2019-04-21T21:58:33.698Z,11.37
2019-04-21T22:01:04.122Z,10.30
2019-04-21T22:03:35.340Z,11.67
2019-04-21T22:06:09.442Z,12.00
2019-04-21T22:08:32.716Z,11.60
2019-04-21T22:11:03.313Z,10.27
2019-04-21T22:13:46.212Z,10.77
2019-04-21T22:16:10.703Z,11.70
2019-04-21T22:18:56.548Z,10.53
2019-04-21T22:21:18.874Z,10.83
2019-04-21T22:23:47.896Z,12.20
2019-04-21T22:26:09.372Z,11.57
2019-04-21T22:28:40.011Z,10.67
2019-04-21T22:31:14.987Z,9.93
2019-04-21T22:33:48.296Z,10.37
2019-04-21T22:36:29.274Z,9.43
2019-04-21T22:38:59.618Z,9.83
2019-04-21T22:41:24.182Z,11.07
2019-04-21T22:43:49.331Z,10.97
2019-04-21T22:46:18.056Z,10.35
2019-04-21T22:48:54.063Z,9.83
2019-04-21T22:51:23.767Z,9.28
2019-04-21T22:53:53.458Z,10.58
2019-04-21T22:56:26.808Z,10.25
2019-04-21T22:58:53.110Z,9.77
2019-04-21T23:01:30.182Z,10.47
2019-04-21T23:04:00.449Z,11.60
2019-04-21T23:06:28.943Z,9.40
2019-04-21T23:08:57.066Z,10.90
2019-04-21T23:11:29.352Z,10.57
2019-04-21T23:14:04.228Z,8.90
2019-04-21T23:16:35.241Z,10.47
2019-04-21T23:19:19.987Z,12.93
2019-04-21T23:21:55.419Z,12.40
2019-04-21T23:24:26.495Z,8.73
2019-04-21T23:26:49.361Z,9.50
2019-04-21T23:29:25.772Z,10.37
2019-04-21T23:31:57.792Z,9.10
2019-04-21T23:34:13.394Z,10.03
2019-04-21T23:36:48.223Z,10.30
2019-04-21T23:39:19.510Z,9.40
2019-04-21T23:41:45.948Z,11.40
2019-04-21T23:44:15.144Z,11.87
2019-04-21T23:46:44.429Z,9.97
2019-04-21T23:49:28.304Z,10.07
2019-04-21T23:51:50.610Z,9.73
2019-04-21T23:54:17.405Z,8.40
2019-04-21T23:56:47.806Z,12.10
2019-04-21T23:59:18.069Z,9.87
